UUOO/VOZ METAR and TAF weather

Enter ICAO airport designator
Station Type Date Time Source
UUOO METAR 2020/04/03 22:30 UTC NOAA

UUOO 032230Z 23004MPS CAVOK 07/M11 Q1012 R30/090070 NOSIG RMK QFE745


Station Type Date Time Source
UUOO Decoded METAR 2020/04/03 22:30 UTC NOAA

Voronez, Russia (UUOO) 51-39N 039-15E 104M
Apr 03, 2020 - 06:30 PM EDT / 2020.04.03 2230 UTC
Wind: from the SW (230 degrees) at 9 MPH (8 KT):0
Visibility: greater than 7 mile(s):0
Temperature: 44 F (7 C)
Dew Point: 12 F (-11 C)
Relative Humidity: 26%
Pressure (altimeter): 29.88 in. Hg (1012 hPa)
ob: UUOO 032230Z 23004MPS CAVOK 07/M11 Q1012 R30/090070 NOSIG RMK QFE745
cycle: 22

Station Type Date Time Source
UUOO TAF 2019/08/12 03:33 UTC NOAA

TAF COR TAF COR UUOO 120159 1203/1212 31003MPS CAVOK

Example: see airport list